sensor_id;sensor_type;location;lat;lon;timestamp;P1;durP1;ratioP1;P2;durP2;ratioP2
17818;SDS011;9034;50.284;19.310;2022-10-15T00:00:06;48.67;;;26.13;;
17818;SDS011;9034;50.284;19.310;2022-10-15T00:01:11;42.30;;;24.65;;
17818;SDS011;9034;50.284;19.310;2022-10-15T00:02:16;61.45;;;32.38;;
17818;SDS011;9034;50.284;19.310;2022-10-15T00:03:19;68.18;;;34.30;;
17818;SDS011;9034;50.284;19.310;2022-10-15T00:04:23;52.20;;;31.10;;
17818;SDS011;9034;50.284;19.310;2022-10-15T00:05:26;49.83;;;30.73;;
17818;SDS011;9034;50.284;19.310;2022-10-15T00:06:31;50.22;;;31.17;;
17818;SDS011;9034;50.284;19.310;2022-10-15T00:07:34;46.90;;;28.73;;
17818;SDS011;9034;50.284;19.310;2022-10-15T00:08:39;46.65;;;28.63;;
17818;SDS011;9034;50.284;19.310;2022-10-15T00:09:42;51.15;;;28.88;;
17818;SDS011;9034;50.284;19.310;2022-10-15T00:10:46;67.30;;;32.53;;
17818;SDS011;9034;50.284;19.310;2022-10-15T00:11:49;46.60;;;29.48;;
17818;SDS011;9034;50.284;19.310;2022-10-15T00:12:54;55.83;;;32.17;;
17818;SDS011;9034;50.284;19.310;2022-10-15T00:13:58;52.08;;;32.65;;
17818;SDS011;9034;50.284;19.310;2022-10-15T00:15:02;49.80;;;31.80;;
17818;SDS011;9034;50.284;19.310;2022-10-15T00:16:06;56.78;;;31.48;;
17818;SDS011;9034;50.284;19.310;2022-10-15T00:17:11;43.30;;;27.27;;
17818;SDS011;9034;50.284;19.310;2022-10-15T00:18:14;54.33;;;32.13;;
17818;SDS011;9034;50.284;19.310;2022-10-15T00:19:18;50.45;;;30.80;;
17818;SDS011;9034;50.284;19.310;2022-10-15T00:20:22;44.63;;;29.67;;
17818;SDS011;9034;50.284;19.310;2022-10-15T00:21:25;47.78;;;30.63;;
17818;SDS011;9034;50.284;19.310;2022-10-15T00:22:29;52.40;;;31.40;;
17818;SDS011;9034;50.284;19.310;2022-10-15T00:23:32;54.03;;;32.40;;
17818;SDS011;9034;50.284;19.310;2022-10-15T00:24:38;69.15;;;38.97;;
17818;SDS011;9034;50.284;19.310;2022-10-15T00:25:41;66.35;;;40.58;;
17818;SDS011;9034;50.284;19.310;2022-10-15T00:26:45;85.80;;;48.45;;
17818;SDS011;9034;50.284;19.310;2022-10-15T00:27:48;110.30;;;56.35;;
17818;SDS011;9034;50.284;19.310;2022-10-15T00:28:52;80.95;;;48.17;;
17818;SDS011;9034;50.284;19.310;2022-10-15T00:29:57;91.90;;;49.47;;
17818;SDS011;9034;50.284;19.310;2022-10-15T00:31:02;90.88;;;49.00;;
17818;SDS011;9034;50.284;19.310;2022-10-15T00:32:07;81.25;;;48.03;;
17818;SDS011;9034;50.284;19.310;2022-10-15T00:33:13;82.03;;;48.45;;
17818;SDS011;9034;50.284;19.310;2022-10-15T00:34:16;78.13;;;47.70;;
17818;SDS011;9034;50.284;19.310;2022-10-15T00:35:21;87.63;;;50.67;;
17818;SDS011;9034;50.284;19.310;2022-10-15T00:36:24;83.28;;;47.63;;
17818;SDS011;9034;50.284;19.310;2022-10-15T00:37:29;86.03;;;48.65;;
17818;SDS011;9034;50.284;19.310;2022-10-15T00:38:32;89.05;;;49.88;;
17818;SDS011;9034;50.284;19.310;2022-10-15T00:39:37;87.82;;;47.45;;
17818;SDS011;9034;50.284;19.310;2022-10-15T00:40:41;80.43;;;46.55;;
17818;SDS011;9034;50.284;19.310;2022-10-15T00:41:45;82.97;;;46.42;;
17818;SDS011;9034;50.284;19.310;2022-10-15T00:42:49;77.68;;;46.33;;
17818;SDS011;9034;50.284;19.310;2022-10-15T00:43:54;82.03;;;46.70;;
17818;SDS011;9034;50.284;19.310;2022-10-15T00:44:58;83.32;;;45.88;;
17818;SDS011;9034;50.284;19.310;2022-10-15T00:46:02;72.60;;;43.40;;
17818;SDS011;9034;50.284;19.310;2022-10-15T00:47:06;72.13;;;43.65;;
17818;SDS011;9034;50.284;19.310;2022-10-15T00:48:16;77.50;;;45.45;;
17818;SDS011;9034;50.284;19.310;2022-10-15T00:49:21;70.55;;;42.60;;
17818;SDS011;9034;50.284;19.310;2022-10-15T00:50:27;68.45;;;42.30;;
17818;SDS011;9034;50.284;19.310;2022-10-15T00:51:32;70.03;;;41.17;;
17818;SDS011;9034;50.284;19.310;2022-10-15T00:52:42;67.90;;;42.53;;
17818;SDS011;9034;50.284;19.310;2022-10-15T00:53:46;70.88;;;41.80;;
17818;SDS011;9034;50.284;19.310;2022-10-15T00:54:54;57.45;;;37.05;;
17818;SDS011;9034;50.284;19.310;2022-10-15T00:55:59;58.28;;;37.97;;
17818;SDS011;9034;50.284;19.310;2022-10-15T00:57:04;75.30;;;43.95;;
17818;SDS011;9034;50.284;19.310;2022-10-15T00:58:08;79.18;;;45.92;;
17818;SDS011;9034;50.284;19.310;2022-10-15T00:59:19;80.72;;;47.85;;
17818;SDS011;9034;50.284;19.310;2022-10-15T01:00:23;71.22;;;43.63;;
17818;SDS011;9034;50.284;19.310;2022-10-15T01:01:28;70.68;;;41.03;;
17818;SDS011;9034;50.284;19.310;2022-10-15T01:02:31;61.08;;;37.75;;
17818;SDS011;9034;50.284;19.310;2022-10-15T01:03:35;64.25;;;39.80;;
17818;SDS011;9034;50.284;19.310;2022-10-15T01:04:38;68.82;;;40.67;;
17818;SDS011;9034;50.284;19.310;2022-10-15T01:05:43;62.88;;;37.65;;
17818;SDS011;9034;50.284;19.310;2022-10-15T01:06:50;69.05;;;42.05;;
17818;SDS011;9034;50.284;19.310;2022-10-15T01:07:53;67.90;;;41.08;;
17818;SDS011;9034;50.284;19.310;2022-10-15T01:08:57;62.75;;;40.92;;
17818;SDS011;9034;50.284;19.310;2022-10-15T01:10:02;74.82;;;44.95;;
17818;SDS011;9034;50.284;19.310;2022-10-15T01:11:10;76.18;;;48.17;;
17818;SDS011;9034;50.284;19.310;2022-10-15T01:12:22;116.28;;;64.85;;
17818;SDS011;9034;50.284;19.310;2022-10-15T01:13:32;66.55;;;40.45;;
17818;SDS011;9034;50.284;19.310;2022-10-15T01:14:39;73.85;;;45.53;;
17818;SDS011;9034;50.284;19.310;2022-10-15T01:15:48;73.60;;;45.65;;
17818;SDS011;9034;50.284;19.310;2022-10-15T01:17:03;81.05;;;47.78;;
17818;SDS011;9034;50.284;19.310;2022-10-15T01:18:10;72.88;;;41.42;;
17818;SDS011;9034;50.284;19.310;2022-10-15T01:19:21;65.65;;;40.70;;
17818;SDS011;9034;50.284;19.310;2022-10-15T01:21:59;68.32;;;43.00;;
17818;SDS011;9034;50.284;19.310;2022-10-15T01:23:13;72.80;;;43.03;;
17818;SDS011;9034;50.284;19.310;2022-10-15T01:26:06;77.82;;;45.95;;
17818;SDS011;9034;50.284;19.310;2022-10-15T01:27:30;88.93;;;49.72;;
17818;SDS011;9034;50.284;19.310;2022-10-15T01:28:39;76.93;;;46.13;;
17818;SDS011;9034;50.284;19.310;2022-10-15T01:31:17;62.50;;;41.70;;
17818;SDS011;9034;50.284;19.310;2022-10-15T01:32:26;75.03;;;46.55;;
17818;SDS011;9034;50.284;19.310;2022-10-15T01:33:32;65.90;;;42.80;;
17818;SDS011;9034;50.284;19.310;2022-10-15T01:34:40;61.88;;;40.65;;
17818;SDS011;9034;50.284;19.310;2022-10-15T01:35:47;62.70;;;39.33;;
17818;SDS011;9034;50.284;19.310;2022-10-15T01:36:55;61.28;;;39.28;;
17818;SDS011;9034;50.284;19.310;2022-10-15T01:38:02;62.03;;;39.00;;
17818;SDS011;9034;50.284;19.310;2022-10-15T01:39:11;56.35;;;36.95;;
17818;SDS011;9034;50.284;19.310;2022-10-15T01:40:19;60.30;;;39.00;;
17818;SDS011;9034;50.284;19.310;2022-10-15T01:41:25;110.18;;;43.15;;
17818;SDS011;9034;50.284;19.310;2022-10-15T01:42:32;63.55;;;38.13;;
17818;SDS011;9034;50.284;19.310;2022-10-15T01:43:42;76.68;;;42.80;;
17818;SDS011;9034;50.284;19.310;2022-10-15T01:45:02;53.90;;;35.58;;
17818;SDS011;9034;50.284;19.310;2022-10-15T01:46:22;56.78;;;36.95;;
17818;SDS011;9034;50.284;19.310;2022-10-15T01:47:39;60.95;;;37.42;;
17818;SDS011;9034;50.284;19.310;2022-10-15T01:48:45;60.28;;;38.00;;
17818;SDS011;9034;50.284;19.310;2022-10-15T01:49:50;59.63;;;37.97;;
17818;SDS011;9034;50.284;19.310;2022-10-15T01:50:56;53.22;;;35.35;;
17818;SDS011;9034;50.284;19.310;2022-10-15T01:52:05;79.47;;;41.75;;
17818;SDS011;9034;50.284;19.310;2022-10-15T01:53:12;54.30;;;36.95;;
17818;SDS011;9034;50.284;19.310;2022-10-15T01:54:17;47.13;;;34.70;;
17818;SDS011;9034;50.284;19.310;2022-10-15T01:55:22;51.17;;;34.88;;
17818;SDS011;9034;50.284;19.310;2022-10-15T01:56:27;58.10;;;38.17;;
17818;SDS011;9034;50.284;19.310;2022-10-15T01:57:32;109.00;;;42.72;;
17818;SDS011;9034;50.284;19.310;2022-10-15T01:58:36;47.53;;;34.00;;
17818;SDS011;9034;50.284;19.310;2022-10-15T01:59:41;56.17;;;33.85;;
17818;SDS011;9034;50.284;19.310;2022-10-15T02:00:45;55.15;;;36.90;;
17818;SDS011;9034;50.284;19.310;2022-10-15T02:01:51;54.22;;;35.25;;
17818;SDS011;9034;50.284;19.310;2022-10-15T02:02:59;56.67;;;35.38;;
17818;SDS011;9034;50.284;19.310;2022-10-15T02:04:15;49.72;;;33.17;;
17818;SDS011;9034;50.284;19.310;2022-10-15T02:05:22;57.85;;;36.22;;
17818;SDS011;9034;50.284;19.310;2022-10-15T02:06:29;66.03;;;37.08;;
17818;SDS011;9034;50.284;19.310;2022-10-15T02:07:37;43.75;;;28.52;;
17818;SDS011;9034;50.284;19.310;2022-10-15T02:08:49;42.45;;;31.17;;
17818;SDS011;9034;50.284;19.310;2022-10-15T02:09:59;45.17;;;32.88;;
17818;SDS011;9034;50.284;19.310;2022-10-15T02:11:09;46.42;;;31.88;;
17818;SDS011;9034;50.284;19.310;2022-10-15T02:12:18;47.67;;;32.95;;
17818;SDS011;9034;50.284;19.310;2022-10-15T02:13:36;47.60;;;31.73;;
17818;SDS011;9034;50.284;19.310;2022-10-15T02:14:49;49.28;;;31.90;;
17818;SDS011;9034;50.284;19.310;2022-10-15T02:15:59;45.25;;;31.45;;
17818;SDS011;9034;50.284;19.310;2022-10-15T02:17:11;51.80;;;32.08;;
17818;SDS011;9034;50.284;19.310;2022-10-15T02:18:15;57.90;;;35.35;;
17818;SDS011;9034;50.284;19.310;2022-10-15T02:19:23;70.68;;;37.65;;
17818;SDS011;9034;50.284;19.310;2022-10-15T02:20:36;48.08;;;30.45;;
17818;SDS011;9034;50.284;19.310;2022-10-15T02:21:44;54.42;;;32.05;;
17818;SDS011;9034;50.284;19.310;2022-10-15T02:22:52;68.18;;;38.70;;
17818;SDS011;9034;50.284;19.310;2022-10-15T02:24:01;58.78;;;34.15;;
17818;SDS011;9034;50.284;19.310;2022-10-15T02:25:09;61.33;;;35.45;;
17818;SDS011;9034;50.284;19.310;2022-10-15T02:26:19;55.60;;;36.92;;
17818;SDS011;9034;50.284;19.310;2022-10-15T02:27:23;58.50;;;36.67;;
17818;SDS011;9034;50.284;19.310;2022-10-15T02:28:27;66.03;;;38.58;;
17818;SDS011;9034;50.284;19.310;2022-10-15T02:29:32;82.72;;;41.97;;
17818;SDS011;9034;50.284;19.310;2022-10-15T02:30:38;59.30;;;36.88;;
17818;SDS011;9034;50.284;19.310;2022-10-15T02:31:44;64.20;;;38.20;;
17818;SDS011;9034;50.284;19.310;2022-10-15T02:32:52;67.18;;;39.80;;
17818;SDS011;9034;50.284;19.310;2022-10-15T02:33:59;61.53;;;36.95;;
17818;SDS011;9034;50.284;19.310;2022-10-15T02:35:06;61.15;;;39.38;;
17818;SDS011;9034;50.284;19.310;2022-10-15T02:36:12;69.85;;;40.03;;
17818;SDS011;9034;50.284;19.310;2022-10-15T02:37:18;56.88;;;36.70;;
17818;SDS011;9034;50.284;19.310;2022-10-15T02:38:22;51.35;;;34.10;;
17818;SDS011;9034;50.284;19.310;2022-10-15T02:39:28;52.45;;;32.47;;
17818;SDS011;9034;50.284;19.310;2022-10-15T02:40:33;58.88;;;37.30;;
17818;SDS011;9034;50.284;19.310;2022-10-15T02:41:38;50.83;;;34.83;;
17818;SDS011;9034;50.284;19.310;2022-10-15T02:42:44;54.38;;;36.20;;
17818;SDS011;9034;50.284;19.310;2022-10-15T02:43:48;53.08;;;35.40;;
17818;SDS011;9034;50.284;19.310;2022-10-15T02:44:51;74.55;;;40.63;;
17818;SDS011;9034;50.284;19.310;2022-10-15T02:45:55;57.65;;;35.45;;
17818;SDS011;9034;50.284;19.310;2022-10-15T02:46:59;60.92;;;39.47;;
17818;SDS011;9034;50.284;19.310;2022-10-15T02:48:06;60.97;;;38.72;;
17818;SDS011;9034;50.284;19.310;2022-10-15T02:49:09;54.85;;;37.60;;
17818;SDS011;9034;50.284;19.310;2022-10-15T02:50:13;58.97;;;39.05;;
17818;SDS011;9034;50.284;19.310;2022-10-15T02:51:16;62.20;;;37.88;;
17818;SDS011;9034;50.284;19.310;2022-10-15T02:52:20;68.82;;;40.03;;
17818;SDS011;9034;50.284;19.310;2022-10-15T02:53:23;54.80;;;36.58;;
17818;SDS011;9034;50.284;19.310;2022-10-15T02:54:28;65.13;;;39.38;;
17818;SDS011;9034;50.284;19.310;2022-10-15T02:55:34;56.40;;;37.58;;
17818;SDS011;9034;50.284;19.310;2022-10-15T02:56:38;55.30;;;36.65;;
17818;SDS011;9034;50.284;19.310;2022-10-15T02:57:42;64.68;;;38.30;;
17818;SDS011;9034;50.284;19.310;2022-10-15T02:58:46;52.75;;;35.13;;
17818;SDS011;9034;50.284;19.310;2022-10-15T02:59:49;59.30;;;37.60;;
17818;SDS011;9034;50.284;19.310;2022-10-15T03:00:53;59.90;;;37.03;;
17818;SDS011;9034;50.284;19.310;2022-10-15T03:01:56;56.08;;;36.08;;
17818;SDS011;9034;50.284;19.310;2022-10-15T03:03:01;49.10;;;34.45;;
17818;SDS011;9034;50.284;19.310;2022-10-15T03:04:06;48.92;;;33.35;;
17818;SDS011;9034;50.284;19.310;2022-10-15T03:05:11;55.97;;;35.30;;
17818;SDS011;9034;50.284;19.310;2022-10-15T03:06:14;50.85;;;33.72;;
17818;SDS011;9034;50.284;19.310;2022-10-15T03:07:18;48.53;;;33.00;;
17818;SDS011;9034;50.284;19.310;2022-10-15T03:08:23;57.70;;;36.35;;
17818;SDS011;9034;50.284;19.310;2022-10-15T03:09:27;56.47;;;35.30;;
17818;SDS011;9034;50.284;19.310;2022-10-15T03:10:30;53.55;;;35.25;;
17818;SDS011;9034;50.284;19.310;2022-10-15T03:11:34;57.35;;;35.78;;
17818;SDS011;9034;50.284;19.310;2022-10-15T03:12:37;47.78;;;32.10;;
17818;SDS011;9034;50.284;19.310;2022-10-15T03:13:41;42.97;;;29.40;;
17818;SDS011;9034;50.284;19.310;2022-10-15T03:14:44;45.35;;;29.40;;
17818;SDS011;9034;50.284;19.310;2022-10-15T03:15:48;49.50;;;31.73;;
17818;SDS011;9034;50.284;19.310;2022-10-15T03:16:51;41.70;;;29.77;;
17818;SDS011;9034;50.284;19.310;2022-10-15T03:17:55;55.20;;;35.10;;
17818;SDS011;9034;50.284;19.310;2022-10-15T03:18:58;53.30;;;33.53;;
17818;SDS011;9034;50.284;19.310;2022-10-15T03:20:04;50.58;;;31.90;;
17818;SDS011;9034;50.284;19.310;2022-10-15T03:21:11;54.08;;;34.72;;
17818;SDS011;9034;50.284;19.310;2022-10-15T03:22:15;50.95;;;34.42;;
17818;SDS011;9034;50.284;19.310;2022-10-15T03:23:27;56.90;;;35.35;;
17818;SDS011;9034;50.284;19.310;2022-10-15T03:24:47;49.75;;;32.45;;
17818;SDS011;9034;50.284;19.310;2022-10-15T03:25:56;45.28;;;29.70;;
17818;SDS011;9034;50.284;19.310;2022-10-15T03:27:01;56.22;;;34.88;;
17818;SDS011;9034;50.284;19.310;2022-10-15T03:28:04;46.00;;;31.73;;
17818;SDS011;9034;50.284;19.310;2022-10-15T03:29:11;47.17;;;31.73;;
17818;SDS011;9034;50.284;19.310;2022-10-15T03:30:28;48.45;;;31.50;;
17818;SDS011;9034;50.284;19.310;2022-10-15T03:31:32;45.47;;;30.10;;
17818;SDS011;9034;50.284;19.310;2022-10-15T03:32:37;71.35;;;34.80;;
17818;SDS011;9034;50.284;19.310;2022-10-15T03:33:42;148.18;;;44.70;;
17818;SDS011;9034;50.284;19.310;2022-10-15T03:34:45;158.55;;;43.25;;
17818;SDS011;9034;50.284;19.310;2022-10-15T03:35:52;118.88;;;40.75;;
17818;SDS011;9034;50.284;19.310;2022-10-15T03:36:56;50.20;;;32.72;;
17818;SDS011;9034;50.284;19.310;2022-10-15T03:38:00;52.20;;;33.95;;
17818;SDS011;9034;50.284;19.310;2022-10-15T03:39:03;65.00;;;36.63;;
17818;SDS011;9034;50.284;19.310;2022-10-15T03:40:10;60.75;;;36.95;;
17818;SDS011;9034;50.284;19.310;2022-10-15T03:41:17;61.30;;;33.67;;
17818;SDS011;9034;50.284;19.310;2022-10-15T03:42:22;59.40;;;34.15;;
17818;SDS011;9034;50.284;19.310;2022-10-15T03:43:26;49.00;;;30.55;;
17818;SDS011;9034;50.284;19.310;2022-10-15T03:44:34;63.97;;;34.95;;
17818;SDS011;9034;50.284;19.310;2022-10-15T03:45:42;52.72;;;35.35;;
17818;SDS011;9034;50.284;19.310;2022-10-15T03:46:55;59.03;;;36.50;;
17818;SDS011;9034;50.284;19.310;2022-10-15T03:48:03;63.20;;;37.63;;
17818;SDS011;9034;50.284;19.310;2022-10-15T03:49:09;51.25;;;33.80;;
17818;SDS011;9034;50.284;19.310;2022-10-15T03:50:12;45.10;;;31.60;;
17818;SDS011;9034;50.284;19.310;2022-10-15T03:51:17;47.97;;;31.90;;
17818;SDS011;9034;50.284;19.310;2022-10-15T03:52:32;44.47;;;29.63;;
17818;SDS011;9034;50.284;19.310;2022-10-15T03:53:37;64.40;;;36.75;;
17818;SDS011;9034;50.284;19.310;2022-10-15T03:54:40;53.05;;;34.38;;
17818;SDS011;9034;50.284;19.310;2022-10-15T03:55:45;46.80;;;32.80;;
17818;SDS011;9034;50.284;19.310;2022-10-15T03:56:49;53.47;;;34.63;;
17818;SDS011;9034;50.284;19.310;2022-10-15T03:58:06;75.95;;;36.58;;
17818;SDS011;9034;50.284;19.310;2022-10-15T03:59:13;61.10;;;36.28;;
17818;SDS011;9034;50.284;19.310;2022-10-15T04:00:24;51.95;;;33.28;;
17818;SDS011;9034;50.284;19.310;2022-10-15T04:01:32;43.40;;;30.52;;
17818;SDS011;9034;50.284;19.310;2022-10-15T04:02:36;76.53;;;37.05;;
17818;SDS011;9034;50.284;19.310;2022-10-15T04:03:41;221.55;;;41.92;;
17818;SDS011;9034;50.284;19.310;2022-10-15T04:04:45;216.18;;;41.42;;
17818;SDS011;9034;50.284;19.310;2022-10-15T04:05:49;70.47;;;32.58;;
17818;SDS011;9034;50.284;19.310;2022-10-15T04:07:00;50.58;;;31.83;;
17818;SDS011;9034;50.284;19.310;2022-10-15T04:08:05;45.28;;;31.23;;
17818;SDS011;9034;50.284;19.310;2022-10-15T04:09:13;65.97;;;33.35;;
17818;SDS011;9034;50.284;19.310;2022-10-15T04:10:16;46.53;;;28.50;;
17818;SDS011;9034;50.284;19.310;2022-10-15T04:11:20;45.85;;;29.52;;
17818;SDS011;9034;50.284;19.310;2022-10-15T04:12:33;73.93;;;36.40;;
17818;SDS011;9034;50.284;19.310;2022-10-15T04:13:37;56.42;;;34.20;;
17818;SDS011;9034;50.284;19.310;2022-10-15T04:14:41;52.17;;;31.60;;
17818;SDS011;9034;50.284;19.310;2022-10-15T04:15:45;50.22;;;32.55;;
17818;SDS011;9034;50.284;19.310;2022-10-15T04:16:48;44.63;;;29.25;;
17818;SDS011;9034;50.284;19.310;2022-10-15T04:17:56;43.03;;;27.67;;
17818;SDS011;9034;50.284;19.310;2022-10-15T04:19:01;43.22;;;27.27;;
17818;SDS011;9034;50.284;19.310;2022-10-15T04:20:11;56.38;;;31.33;;
17818;SDS011;9034;50.284;19.310;2022-10-15T04:21:17;46.88;;;29.38;;
17818;SDS011;9034;50.284;19.310;2022-10-15T04:22:30;41.45;;;27.90;;
17818;SDS011;9034;50.284;19.310;2022-10-15T04:23:36;42.85;;;26.73;;
17818;SDS011;9034;50.284;19.310;2022-10-15T04:25:08;37.83;;;24.10;;
17818;SDS011;9034;50.284;19.310;2022-10-15T04:26:12;35.75;;;23.73;;
17818;SDS011;9034;50.284;19.310;2022-10-15T04:27:15;39.80;;;25.58;;
17818;SDS011;9034;50.284;19.310;2022-10-15T04:28:19;39.42;;;27.40;;
17818;SDS011;9034;50.284;19.310;2022-10-15T04:29:22;38.47;;;26.17;;
17818;SDS011;9034;50.284;19.310;2022-10-15T04:30:27;41.67;;;28.15;;
17818;SDS011;9034;50.284;19.310;2022-10-15T04:31:33;39.40;;;26.80;;
17818;SDS011;9034;50.284;19.310;2022-10-15T04:32:39;38.05;;;24.50;;
17818;SDS011;9034;50.284;19.310;2022-10-15T04:33:42;33.92;;;23.40;;
17818;SDS011;9034;50.284;19.310;2022-10-15T04:34:46;38.72;;;25.13;;
17818;SDS011;9034;50.284;19.310;2022-10-15T04:35:57;44.35;;;28.05;;
17818;SDS011;9034;50.284;19.310;2022-10-15T04:37:23;38.35;;;23.38;;
17818;SDS011;9034;50.284;19.310;2022-10-15T04:38:29;44.47;;;27.73;;
17818;SDS011;9034;50.284;19.310;2022-10-15T04:39:35;40.92;;;25.58;;
17818;SDS011;9034;50.284;19.310;2022-10-15T04:40:39;40.83;;;26.38;;
17818;SDS011;9034;50.284;19.310;2022-10-15T04:41:42;48.45;;;27.83;;
17818;SDS011;9034;50.284;19.310;2022-10-15T04:42:48;45.75;;;27.88;;
17818;SDS011;9034;50.284;19.310;2022-10-15T04:43:51;47.38;;;29.23;;
17818;SDS011;9034;50.284;19.310;2022-10-15T04:44:56;81.68;;;34.20;;
17818;SDS011;9034;50.284;19.310;2022-10-15T04:46:01;46.13;;;29.38;;
17818;SDS011;9034;50.284;19.310;2022-10-15T04:47:06;37.95;;;24.95;;
17818;SDS011;9034;50.284;19.310;2022-10-15T04:48:21;37.10;;;24.70;;
17818;SDS011;9034;50.284;19.310;2022-10-15T04:49:25;199.30;;;39.67;;
17818;SDS011;9034;50.284;19.310;2022-10-15T04:50:29;43.13;;;27.70;;
17818;SDS011;9034;50.284;19.310;2022-10-15T04:51:52;53.95;;;24.63;;
17818;SDS011;9034;50.284;19.310;2022-10-15T04:53:05;33.78;;;23.30;;
17818;SDS011;9034;50.284;19.310;2022-10-15T04:54:13;34.55;;;23.88;;
17818;SDS011;9034;50.284;19.310;2022-10-15T04:55:30;44.17;;;27.00;;
17818;SDS011;9034;50.284;19.310;2022-10-15T04:56:35;41.17;;;26.85;;
17818;SDS011;9034;50.284;19.310;2022-10-15T04:57:39;45.97;;;29.23;;
17818;SDS011;9034;50.284;19.310;2022-10-15T04:58:42;44.40;;;28.55;;
17818;SDS011;9034;50.284;19.310;2022-10-15T04:59:48;39.00;;;26.83;;
17818;SDS011;9034;50.284;19.310;2022-10-15T05:00:59;45.05;;;26.17;;
17818;SDS011;9034;50.284;19.310;2022-10-15T05:02:07;45.80;;;26.95;;
17818;SDS011;9034;50.284;19.310;2022-10-15T05:03:12;61.65;;;33.50;;
17818;SDS011;9034;50.284;19.310;2022-10-15T05:04:23;66.63;;;33.47;;
17818;SDS011;9034;50.284;19.310;2022-10-15T05:05:27;59.95;;;33.38;;
17818;SDS011;9034;50.284;19.310;2022-10-15T05:06:33;71.90;;;38.95;;
17818;SDS011;9034;50.284;19.310;2022-10-15T05:07:58;73.60;;;39.85;;
17818;SDS011;9034;50.284;19.310;2022-10-15T05:09:03;81.30;;;38.83;;
17818;SDS011;9034;50.284;19.310;2022-10-15T05:10:08;82.63;;;40.67;;
17818;SDS011;9034;50.284;19.310;2022-10-15T05:11:12;75.43;;;40.40;;
17818;SDS011;9034;50.284;19.310;2022-10-15T05:12:17;82.43;;;40.55;;
17818;SDS011;9034;50.284;19.310;2022-10-15T05:13:22;75.55;;;39.92;;
17818;SDS011;9034;50.284;19.310;2022-10-15T05:14:25;71.32;;;39.35;;
17818;SDS011;9034;50.284;19.310;2022-10-15T05:15:48;76.55;;;38.63;;
17818;SDS011;9034;50.284;19.310;2022-10-15T05:16:54;77.60;;;39.97;;
17818;SDS011;9034;50.284;19.310;2022-10-15T05:18:00;77.20;;;39.97;;
17818;SDS011;9034;50.284;19.310;2022-10-15T05:19:11;74.25;;;38.85;;
17818;SDS011;9034;50.284;19.310;2022-10-15T05:20:16;73.30;;;39.38;;
17818;SDS011;9034;50.284;19.310;2022-10-15T05:21:20;70.47;;;38.63;;
17818;SDS011;9034;50.284;19.310;2022-10-15T05:22:28;70.10;;;38.40;;
17818;SDS011;9034;50.284;19.310;2022-10-15T05:23:33;77.07;;;41.30;;
17818;SDS011;9034;50.284;19.310;2022-10-15T05:24:56;70.05;;;39.13;;
17818;SDS011;9034;50.284;19.310;2022-10-15T05:26:07;78.57;;;38.33;;
17818;SDS011;9034;50.284;19.310;2022-10-15T05:27:13;75.97;;;36.53;;
17818;SDS011;9034;50.284;19.310;2022-10-15T05:28:17;67.80;;;36.25;;
17818;SDS011;9034;50.284;19.310;2022-10-15T05:29:20;77.38;;;37.92;;
17818;SDS011;9034;50.284;19.310;2022-10-15T05:30:24;70.70;;;35.40;;
17818;SDS011;9034;50.284;19.310;2022-10-15T05:31:29;100.65;;;37.92;;
17818;SDS011;9034;50.284;19.310;2022-10-15T05:32:59;59.13;;;32.63;;
17818;SDS011;9034;50.284;19.310;2022-10-15T05:34:06;64.68;;;35.20;;
17818;SDS011;9034;50.284;19.310;2022-10-15T05:35:20;51.92;;;27.15;;
17818;SDS011;9034;50.284;19.310;2022-10-15T05:36:29;66.32;;;34.72;;
17818;SDS011;9034;50.284;19.310;2022-10-15T05:37:33;62.38;;;34.17;;
17818;SDS011;9034;50.284;19.310;2022-10-15T05:38:37;62.13;;;34.40;;
17818;SDS011;9034;50.284;19.310;2022-10-15T05:39:40;63.08;;;36.17;;
17818;SDS011;9034;50.284;19.310;2022-10-15T05:40:46;65.53;;;35.83;;
17818;SDS011;9034;50.284;19.310;2022-10-15T05:41:55;66.28;;;35.33;;
17818;SDS011;9034;50.284;19.310;2022-10-15T05:43:18;64.15;;;34.92;;
17818;SDS011;9034;50.284;19.310;2022-10-15T05:44:22;66.30;;;37.55;;
17818;SDS011;9034;50.284;19.310;2022-10-15T05:45:26;58.72;;;36.17;;
17818;SDS011;9034;50.284;19.310;2022-10-15T05:46:35;56.33;;;34.08;;
17818;SDS011;9034;50.284;19.310;2022-10-15T05:47:39;56.28;;;34.00;;
17818;SDS011;9034;50.284;19.310;2022-10-15T05:48:51;54.50;;;33.47;;
17818;SDS011;9034;50.284;19.310;2022-10-15T05:49:56;56.83;;;32.83;;
17818;SDS011;9034;50.284;19.310;2022-10-15T05:51:05;53.63;;;32.47;;
17818;SDS011;9034;50.284;19.310;2022-10-15T05:52:10;52.38;;;32.30;;
17818;SDS011;9034;50.284;19.310;2022-10-15T05:53:52;50.13;;;30.88;;
17818;SDS011;9034;50.284;19.310;2022-10-15T05:54:56;51.50;;;32.38;;
17818;SDS011;9034;50.284;19.310;2022-10-15T05:55:59;51.63;;;31.27;;
17818;SDS011;9034;50.284;19.310;2022-10-15T05:57:06;45.65;;;29.90;;
17818;SDS011;9034;50.284;19.310;2022-10-15T05:58:09;49.05;;;29.20;;
17818;SDS011;9034;50.284;19.310;2022-10-15T05:59:13;53.03;;;29.95;;
17818;SDS011;9034;50.284;19.310;2022-10-15T06:00:16;55.63;;;29.83;;
17818;SDS011;9034;50.284;19.310;2022-10-15T06:01:26;45.67;;;27.85;;
17818;SDS011;9034;50.284;19.310;2022-10-15T06:02:30;47.90;;;28.00;;
17818;SDS011;9034;50.284;19.310;2022-10-15T06:03:33;45.22;;;29.38;;
17818;SDS011;9034;50.284;19.310;2022-10-15T06:04:37;51.97;;;29.83;;
17818;SDS011;9034;50.284;19.310;2022-10-15T06:05:40;48.50;;;28.83;;
17818;SDS011;9034;50.284;19.310;2022-10-15T06:06:45;42.17;;;28.15;;
17818;SDS011;9034;50.284;19.310;2022-10-15T06:07:47;43.88;;;27.35;;
17818;SDS011;9034;50.284;19.310;2022-10-15T06:08:52;41.88;;;28.00;;
17818;SDS011;9034;50.284;19.310;2022-10-15T06:09:56;40.83;;;27.38;;
17818;SDS011;9034;50.284;19.310;2022-10-15T06:11:02;39.97;;;26.75;;
17818;SDS011;9034;50.284;19.310;2022-10-15T06:12:11;37.38;;;25.75;;
17818;SDS011;9034;50.284;19.310;2022-10-15T06:13:14;37.80;;;24.88;;
17818;SDS011;9034;50.284;19.310;2022-10-15T06:14:19;38.30;;;25.75;;
17818;SDS011;9034;50.284;19.310;2022-10-15T06:15:23;34.58;;;24.77;;
17818;SDS011;9034;50.284;19.310;2022-10-15T06:16:26;34.50;;;24.40;;
17818;SDS011;9034;50.284;19.310;2022-10-15T06:17:31;31.70;;;23.58;;
17818;SDS011;9034;50.284;19.310;2022-10-15T06:18:34;35.40;;;23.58;;
17818;SDS011;9034;50.284;19.310;2022-10-15T06:19:39;32.65;;;22.25;;
17818;SDS011;9034;50.284;19.310;2022-10-15T06:20:42;34.83;;;23.17;;
17818;SDS011;9034;50.284;19.310;2022-10-15T06:21:49;34.05;;;23.13;;
17818;SDS011;9034;50.284;19.310;2022-10-15T06:22:55;32.45;;;23.13;;
17818;SDS011;9034;50.284;19.310;2022-10-15T06:23:59;30.90;;;22.23;;
17818;SDS011;9034;50.284;19.310;2022-10-15T06:25:07;32.42;;;22.52;;
17818;SDS011;9034;50.284;19.310;2022-10-15T06:26:12;29.48;;;21.50;;
17818;SDS011;9034;50.284;19.310;2022-10-15T06:27:17;32.78;;;20.30;;
17818;SDS011;9034;50.284;19.310;2022-10-15T06:28:21;28.70;;;21.02;;
17818;SDS011;9034;50.284;19.310;2022-10-15T06:29:24;29.58;;;20.20;;
17818;SDS011;9034;50.284;19.310;2022-10-15T06:30:30;26.83;;;20.08;;
17818;SDS011;9034;50.284;19.310;2022-10-15T06:31:33;30.60;;;21.05;;
17818;SDS011;9034;50.284;19.310;2022-10-15T06:32:37;32.28;;;20.40;;
17818;SDS011;9034;50.284;19.310;2022-10-15T06:33:40;37.97;;;21.13;;